Time;durP1;ratioP1;P1;durP2;ratioP2;P2;SDS_P1;SDS_P2;PMS_P1;PMS_P2;Temp;Humidity;BMP_temperature;BMP_pressure;BME280_temperature;BME280_humidity;BME280_pressure;Samples;Min_cycle;Max_cycle;Signal;HPM_P1;HPM_P2
2021/04/14 00:00:43;;;;;;;8.83;3.50;;;3.70;72.40;;;;;;5075528;28;20032;-76
2021/04/14 00:03:15;;;;;;;6.63;3.93;;;3.70;72.50;;;;;;5075506;28;20111;-76
2021/04/14 00:05:48;;;;;;;7.87;3.73;;;3.70;72.70;;;;;;5075980;28;20021;-76
2021/04/14 00:08:15;;;;;;;8.47;4.23;;;3.70;72.70;;;;;;5075705;28;20103;-77
2021/04/14 00:10:42;;;;;;;10.50;3.80;;;3.80;72.80;;;;;;5075794;28;20441;-76
2021/04/14 00:13:32;;;;;;;7.07;3.37;;;3.80;72.90;;;;;;5057893;28;20119;-76
2021/04/14 00:15:58;;;;;;;9.23;3.73;;;3.90;72.90;;;;;;5058163;28;20411;-76
2021/04/14 00:18:25;;;;;;;8.67;4.07;;;3.80;72.90;;;;;;5041263;28;20021;-76
2021/04/14 00:20:51;;;;;;;7.93;3.50;;;3.90;73.10;;;;;;5057738;28;20444;-76
2021/04/14 00:23:19;;;;;;;6.40;3.60;;;3.90;73.30;;;;;;5075985;28;20017;-77
2021/04/14 00:25:46;;;;;;;7.77;3.70;;;4.00;73.60;;;;;;5057691;28;20074;-76
2021/04/14 00:28:15;;;;;;;8.47;3.80;;;4.00;73.80;;;;;;5058559;28;20055;-76
2021/04/14 00:30:41;;;;;;;8.53;4.30;;;4.00;73.90;;;;;;5075807;28;20032;-76
2021/04/14 00:33:07;;;;;;;10.47;4.03;;;4.10;74.10;;;;;;5076041;28;20028;-76
2021/04/14 00:35:33;;;;;;;7.30;4.00;;;4.10;74.20;;;;;;5057715;28;20376;-76
2021/04/14 00:37:58;;;;;;;6.73;3.57;;;4.10;74.40;;;;;;5057462;28;20024;-76
2021/04/14 00:40:29;;;;;;;8.53;4.17;;;4.10;74.20;;;;;;5075543;28;20032;-76
2021/04/14 00:42:55;;;;;;;8.97;3.67;;;4.10;74.10;;;;;;5075766;28;20028;-76
2021/04/14 00:45:23;;;;;;;7.47;3.63;;;4.10;74.30;;;;;;5057740;28;20079;-77
2021/04/14 00:47:49;;;;;;;6.20;3.67;;;4.10;74.40;;;;;;5075588;28;20020;-76
2021/04/14 00:50:19;;;;;;;18.70;4.40;;;4.20;74.50;;;;;;5075123;28;20104;-74
2021/04/14 00:52:45;;;;;;;10.10;3.90;;;4.10;74.60;;;;;;5057023;28;20021;-73
2021/04/14 00:55:16;;;;;;;8.60;4.03;;;4.20;74.60;;;;;;5056824;28;20174;-73
2021/04/14 00:57:42;;;;;;;7.90;4.10;;;4.20;74.70;;;;;;5056788;28;20039;-73
2021/04/14 01:00:19;;;;;;;8.13;3.80;;;4.20;74.80;;;;;;5057001;28;20464;-73
2021/04/14 01:02:45;;;;;;;7.13;3.87;;;4.20;74.90;;;;;;5075368;28;20023;-73
2021/04/14 01:05:22;;;;;;;8.87;3.87;;;4.20;75.00;;;;;;5056974;28;20112;-75
2021/04/14 01:07:49;;;;;;;9.13;4.70;;;4.20;75.00;;;;;;5075183;28;20031;-75
2021/04/14 01:10:15;;;;;;;12.23;4.50;;;4.20;75.20;;;;;;5074643;28;20063;-75
2021/04/14 01:12:41;;;;;;;12.17;4.27;;;4.20;75.40;;;;;;5056765;28;20021;-75
2021/04/14 01:15:09;;;;;;;10.77;4.50;;;4.20;75.40;;;;;;5074746;28;20104;-76
2021/04/14 01:17:35;;;;;;;13.87;4.50;;;4.20;75.50;;;;;;5056668;28;20032;-75
2021/04/14 01:20:01;;;;;;;12.67;5.23;;;4.20;75.60;;;;;;5056941;28;20036;-75
2021/04/14 01:22:26;;;;;;;10.73;4.33;;;4.20;75.70;;;;;;5074879;28;20043;-75
2021/04/14 01:24:53;;;;;;;9.33;4.10;;;4.20;75.80;;;;;;5057006;28;20024;-74
2021/04/14 01:27:18;;;;;;;8.50;4.53;;;4.20;75.90;;;;;;5056389;28;20094;-75
2021/04/14 01:29:44;;;;;;;11.13;4.73;;;4.20;76.10;;;;;;5074515;28;20032;-74
2021/04/14 01:32:09;;;;;;;8.70;5.03;;;4.20;76.20;;;;;;5074403;28;20448;-74
2021/04/14 01:34:35;;;;;;;10.83;5.53;;;4.20;76.30;;;;;;5056424;28;20025;-74
2021/04/14 01:37:01;;;;;;;13.03;5.17;;;4.20;76.30;;;;;;5023512;28;20020;-74
2021/04/14 01:39:26;;;;;;;8.83;5.17;;;4.20;76.40;;;;;;5074106;28;20064;-75
2021/04/14 01:41:52;;;;;;;10.00;5.07;;;4.20;76.50;;;;;;5056088;28;20111;-75
2021/04/14 01:44:18;;;;;;;11.50;5.03;;;4.30;76.50;;;;;;5073918;28;20049;-74
2021/04/14 01:46:43;;;;;;;9.17;5.40;;;4.20;76.40;;;;;;5056403;28;20025;-74
2021/04/14 01:49:10;;;;;;;7.97;4.50;;;4.20;76.40;;;;;;5074125;28;20036;-75
2021/04/14 01:51:36;;;;;;;9.30;5.03;;;4.20;76.50;;;;;;5073815;28;20032;-75
2021/04/14 01:54:04;;;;;;;8.80;4.87;;;4.30;76.80;;;;;;5073843;28;20495;-74
2021/04/14 01:56:30;;;;;;;11.87;5.37;;;4.30;76.70;;;;;;5073822;28;20028;-75
2021/04/14 01:58:55;;;;;;;8.73;5.17;;;4.30;76.80;;;;;;5056701;28;20483;-77
2021/04/14 02:01:21;;;;;;;11.73;5.50;;;4.30;76.90;;;;;;5073295;28;20036;-77
2021/04/14 02:03:47;;;;;;;10.10;5.47;;;4.30;76.90;;;;;;5056096;28;20052;-77
2021/04/14 02:06:15;;;;;;;9.60;5.43;;;4.40;76.90;;;;;;5056322;28;20387;-77
2021/04/14 02:08:42;;;;;;;10.57;4.90;;;4.40;77.00;;;;;;5073609;28;20074;-77
2021/04/14 02:11:09;;;;;;;11.60;5.37;;;4.40;77.20;;;;;;5073862;28;20481;-77
2021/04/14 02:13:38;;;;;;;10.50;5.37;;;4.50;77.30;;;;;;5073686;28;20085;-77
2021/04/14 02:16:06;;;;;;;11.33;5.77;;;4.50;77.20;;;;;;5073984;28;20103;-77
2021/04/14 02:18:34;;;;;;;10.73;5.40;;;4.40;77.00;;;;;;5055484;28;20047;-77
2021/04/14 02:21:00;;;;;;;10.33;6.47;;;4.50;77.10;;;;;;5073487;28;20111;-77
2021/04/14 02:23:30;;;;;;;12.07;6.33;;;4.50;77.10;;;;;;5055176;28;20036;-77
2021/04/14 02:25:59;;;;;;;9.73;5.90;;;4.50;77.10;;;;;;5055323;28;20017;-76
2021/04/14 02:28:24;;;;;;;12.50;6.13;;;4.50;77.00;;;;;;5055494;28;20341;-77
2021/04/14 02:30:50;;;;;;;11.20;6.13;;;4.50;77.00;;;;;;5055457;28;20162;-78
2021/04/14 02:33:17;;;;;;;9.17;5.80;;;4.50;76.90;;;;;;5073597;28;20016;-77
2021/04/14 02:35:43;;;;;;;12.70;6.33;;;4.50;76.90;;;;;;5072907;28;20038;-77
2021/04/14 02:38:11;;;;;;;11.67;6.20;;;4.50;76.90;;;;;;5073203;28;20321;-76
2021/04/14 02:40:36;;;;;;;10.57;6.20;;;4.60;76.90;;;;;;5073344;28;20028;-76
2021/04/14 02:43:06;;;;;;;10.20;6.50;;;4.60;77.00;;;;;;5073454;28;20052;-76
2021/04/14 02:45:34;;;;;;;11.00;6.67;;;4.50;77.00;;;;;;5055236;28;20086;-76
2021/04/14 02:48:00;;;;;;;8.70;5.87;;;4.60;77.20;;;;;;5073551;28;20048;-76
2021/04/14 02:50:26;;;;;;;15.63;6.27;;;4.60;77.30;;;;;;5055285;28;20076;-76
2021/04/14 02:52:52;;;;;;;12.77;6.67;;;4.60;77.30;;;;;;5054758;28;20036;-76
2021/04/14 02:55:19;;;;;;;10.47;6.47;;;4.60;77.50;;;;;;5072896;28;20037;-77
2021/04/14 02:57:45;;;;;;;10.33;6.03;;;4.60;77.60;;;;;;5072871;28;20042;-76
2021/04/14 03:00:12;;;;;;;12.23;7.17;;;4.60;77.60;;;;;;5038415;28;20115;-76
2021/04/14 03:02:38;;;;;;;12.87;7.00;;;4.60;77.80;;;;;;5073100;28;20060;-76
2021/04/14 03:05:07;;;;;;;10.63;6.43;;;4.60;77.80;;;;;;5055154;28;20451;-76
2021/04/14 03:07:32;;;;;;;10.77;7.40;;;4.60;77.70;;;;;;5073102;28;20024;-76
2021/04/14 03:09:58;;;;;;;10.53;7.10;;;4.60;77.80;;;;;;5073026;28;20089;-76
2021/04/14 03:12:24;;;;;;;13.97;6.70;;;4.60;77.80;;;;;;5038702;28;20048;-77
2021/04/14 03:14:49;;;;;;;12.10;7.00;;;4.60;78.00;;;;;;5072896;28;20036;-76
2021/04/14 03:17:15;;;;;;;10.73;7.07;;;4.60;78.00;;;;;;5072835;28;20028;-77
2021/04/14 03:19:41;;;;;;;12.83;7.10;;;4.60;78.10;;;;;;5055139;28;20426;-76
2021/04/14 03:22:07;;;;;;;10.67;6.87;;;4.60;78.20;;;;;;5072845;28;20025;-74
2021/04/14 03:24:33;;;;;;;11.10;7.13;;;4.50;78.30;;;;;;5054571;28;20028;-74
2021/04/14 03:26:58;;;;;;;10.80;7.17;;;4.50;78.50;;;;;;5054654;28;20025;-74
2021/04/14 03:29:24;;;;;;;12.80;8.73;;;4.50;78.50;;;;;;5055126;28;20028;-74
2021/04/14 03:31:50;;;;;;;14.20;8.23;;;4.50;78.20;;;;;;5073109;28;20024;-74
2021/04/14 03:34:15;;;;;;;14.23;8.43;;;4.40;78.10;;;;;;5075322;28;20495;-74
2021/04/14 03:36:41;;;;;;;13.20;8.37;;;4.40;77.90;;;;;;5058882;28;20163;-74
2021/04/14 03:39:07;;;;;;;14.93;8.60;;;4.30;77.80;;;;;;5058659;28;20043;-74
2021/04/14 03:41:34;;;;;;;14.80;9.67;;;4.30;77.90;;;;;;5074805;28;20040;-74
2021/04/14 03:44:00;;;;;;;16.33;9.07;;;4.20;78.10;;;;;;5075212;28;20079;-74
2021/04/14 03:46:26;;;;;;;13.57;8.97;;;4.10;77.90;;;;;;5057968;28;20052;-74
2021/04/14 03:48:52;;;;;;;11.90;8.77;;;4.10;77.90;;;;;;5057723;28;20035;-74
2021/04/14 03:51:19;;;;;;;16.80;8.77;;;4.10;77.90;;;;;;5058447;28;20025;-74
2021/04/14 03:53:45;;;;;;;17.67;9.00;;;4.00;77.70;;;;;;5076382;28;20029;-74
2021/04/14 03:56:14;;;;;;;16.93;9.87;;;3.90;77.80;;;;;;5057940;28;20032;-73
2021/04/14 03:58:43;;;;;;;14.20;9.70;;;3.90;77.90;;;;;;5076216;28;20079;-74
2021/04/14 04:01:14;;;;;;;17.27;9.17;;;3.80;78.00;;;;;;5066782;28;20465;-74
2021/04/14 04:03:40;;;;;;;16.23;10.30;;;3.80;78.10;;;;;;5067595;28;20022;-74
2021/04/14 04:06:06;;;;;;;13.37;9.53;;;3.80;78.20;;;;;;5057434;28;20365;-74
2021/04/14 04:08:32;;;;;;;14.30;9.23;;;3.70;78.30;;;;;;5075353;28;20024;-74
2021/04/14 04:10:58;;;;;;;14.17;9.47;;;3.70;78.30;;;;;;5057861;28;20033;-74
2021/04/14 04:13:24;;;;;;;15.60;9.93;;;3.70;78.30;;;;;;5057983;28;20036;-74
2021/04/14 04:15:50;;;;;;;16.90;9.50;;;3.70;78.40;;;;;;5074879;28;20468;-74
2021/04/14 04:18:18;;;;;;;14.83;9.27;;;3.70;78.50;;;;;;5057598;28;20046;-74
2021/04/14 04:20:44;;;;;;;15.37;8.73;;;3.70;78.50;;;;;;5057769;28;20502;-74
2021/04/14 04:23:11;;;;;;;16.43;9.40;;;3.70;78.60;;;;;;5057690;28;20027;-74
2021/04/14 04:25:38;;;;;;;15.27;9.47;;;3.70;78.70;;;;;;5057649;28;20017;-74
2021/04/14 04:28:04;;;;;;;17.07;9.77;;;3.70;78.80;;;;;;5057431;28;20519;-73
2021/04/14 04:30:31;;;;;;;14.57;9.03;;;3.60;78.90;;;;;;5075526;28;20035;-73
2021/04/14 04:32:58;;;;;;;13.67;8.43;;;3.60;79.10;;;;;;5057367;28;20032;-73
2021/04/14 04:35:24;;;;;;;16.03;10.07;;;3.50;79.30;;;;;;5074462;28;20032;-73
2021/04/14 04:37:50;;;;;;;16.63;9.57;;;3.60;80.70;;;;;;5075095;28;20032;-73
2021/04/14 04:40:18;;;;;;;16.23;9.70;;;3.60;81.10;;;;;;5057445;28;20029;-73
2021/04/14 04:42:43;;;;;;;15.57;8.90;;;3.70;80.90;;;;;;5075638;28;20037;-74
2021/04/14 04:45:10;;;;;;;13.50;8.33;;;3.70;81.00;;;;;;5056645;28;20044;-74
2021/04/14 04:47:37;;;;;;;17.07;7.90;;;3.70;80.50;;;;;;5057358;28;20142;-74
2021/04/14 04:50:04;;;;;;;12.53;7.77;;;3.70;80.20;;;;;;5075519;28;20364;-73
2021/04/14 04:52:30;;;;;;;14.33;7.80;;;3.70;80.00;;;;;;5075159;28;20016;-73
2021/04/14 04:54:55;;;;;;;17.03;8.80;;;3.70;80.00;;;;;;5075321;28;20383;-73
2021/04/14 04:57:21;;;;;;;14.93;8.07;;;3.80;80.00;;;;;;5057480;28;20039;-74
2021/04/14 04:59:46;;;;;;;14.07;7.77;;;3.80;79.90;;;;;;5074962;28;20036;-74
2021/04/14 05:02:15;;;;;;;15.20;7.43;;;3.80;79.80;;;;;;5056866;28;20059;-74
2021/04/14 05:04:41;;;;;;;16.40;8.23;;;3.80;79.80;;;;;;5056891;28;20111;-74
2021/04/14 05:07:07;;;;;;;12.90;7.17;;;3.80;79.80;;;;;;5057024;28;20103;-73
2021/04/14 05:09:33;;;;;;;15.13;8.43;;;3.90;79.90;;;;;;5056526;28;20021;-74
2021/04/14 05:11:58;;;;;;;16.77;7.60;;;3.90;79.80;;;;;;5039849;28;20032;-74
2021/04/14 05:14:24;;;;;;;15.50;7.70;;;3.90;79.80;;;;;;5074843;28;20025;-74
2021/04/14 05:16:50;;;;;;;16.23;8.20;;;3.90;79.80;;;;;;5074819;28;20021;-74
2021/04/14 05:19:16;;;;;;;18.87;8.90;;;3.90;79.80;;;;;;5074663;28;20103;-74
2021/04/14 05:21:41;;;;;;;15.07;8.00;;;4.00;79.90;;;;;;5056304;28;20419;-74
2021/04/14 05:24:11;;;;;;;16.10;8.10;;;4.00;79.90;;;;;;5035900;28;20021;-74
2021/04/14 05:26:38;;;;;;;13.77;7.60;;;4.00;79.90;;;;;;5055073;28;20134;-74
2021/04/14 05:29:04;;;;;;;13.60;7.90;;;4.10;80.20;;;;;;5054796;28;20048;-74
2021/04/14 05:31:37;;;;;;;16.03;8.30;;;4.10;80.10;;;;;;5053710;28;20028;-73
2021/04/14 05:34:03;;;;;;;13.93;8.53;;;4.10;80.20;;;;;;5054138;28;20499;-74
2021/04/14 05:36:30;;;;;;;14.17;8.17;;;4.20;80.20;;;;;;5071503;28;20055;-75
2021/04/14 05:38:55;;;;;;;14.30;7.97;;;4.30;80.10;;;;;;5074358;28;20468;-76
2021/04/14 05:41:22;;;;;;;17.20;8.07;;;4.30;80.20;;;;;;5038938;28;20056;-73
2021/04/14 05:43:48;;;;;;;10.97;6.83;;;4.40;80.00;;;;;;5072612;28;20694;-76
2021/04/14 05:46:17;;;;;;;16.23;7.80;;;4.50;79.80;;;;;;5055749;28;20035;-74
2021/04/14 05:48:45;;;;;;;17.90;8.60;;;4.40;79.70;;;;;;5055929;28;20012;-74
2021/04/14 05:51:13;;;;;;;14.40;7.63;;;4.50;79.80;;;;;;5073935;28;20048;-74
2021/04/14 05:53:40;;;;;;;17.33;8.07;;;4.60;79.70;;;;;;5056153;28;20028;-74
2021/04/14 05:56:08;;;;;;;13.63;7.93;;;4.60;79.70;;;;;;5073151;28;20043;-74
2021/04/14 05:58:34;;;;;;;19.80;9.03;;;4.70;79.70;;;;;;5072807;28;20491;-75
2021/04/14 06:01:01;;;;;;;13.00;7.50;;;4.80;79.70;;;;;;5072205;28;20042;-74
2021/04/14 06:03:26;;;;;;;14.10;8.27;;;4.80;79.70;;;;;;5054603;28;20074;-76
2021/04/14 06:05:57;;;;;;;14.33;8.07;;;4.90;79.60;;;;;;5055204;28;20017;-75
2021/04/14 06:08:23;;;;;;;13.97;7.70;;;4.90;79.60;;;;;;5073359;28;20055;-75
2021/04/14 06:10:49;;;;;;;13.40;7.50;;;5.00;79.60;;;;;;5072450;28;20044;-77
2021/04/14 06:13:16;;;;;;;18.47;9.23;;;5.10;79.50;;;;;;5073212;28;20411;-75
2021/04/14 06:15:43;;;;;;;13.90;8.10;;;5.10;79.40;;;;;;5040110;28;20415;-75
2021/04/14 06:18:08;;;;;;;15.17;7.97;;;5.20;79.30;;;;;;5054974;28;20430;-75
2021/04/14 06:20:35;;;;;;;12.73;7.77;;;5.30;80.00;;;;;;5055024;28;20032;-74
2021/04/14 06:23:04;;;;;;;14.87;8.43;;;5.30;79.10;;;;;;5072982;28;20087;-76
2021/04/14 06:25:38;;;;;;;12.70;7.30;;;5.40;79.00;;;;;;5073078;28;20036;-74
2021/04/14 06:28:07;;;;;;;13.80;6.82;;;5.40;78.90;;;;;;5073310;28;20024;-75
2021/04/14 06:30:38;;;;;;;14.27;7.30;;;5.50;78.80;;;;;;5072983;28;20040;-75
2021/04/14 06:33:08;;;;;;;14.67;8.17;;;5.50;78.70;;;;;;5055941;28;20059;-74
2021/04/14 06:35:33;;;;;;;11.97;6.83;;;5.60;78.60;;;;;;5047517;28;20464;-74
2021/04/14 06:38:00;;;;;;;16.37;8.23;;;5.60;78.50;;;;;;5073190;28;20028;-74
2021/04/14 06:43:12;;;;;;;12.70;7.97;;;5.70;78.90;;;;;;5072993;28;20025;-74
2021/04/14 06:45:55;;;;;;;14.83;9.17;;;5.70;78.10;;;;;;5072882;28;20040;-74
2021/04/14 06:48:46;;;;;;;15.27;8.97;;;5.70;78.00;;;;;;5073442;28;20472;-74
2021/04/14 06:51:40;;;;;;;16.40;9.10;;;5.80;78.00;;;;;;5054687;28;20028;-74
2021/04/14 06:54:31;;;;;;;14.93;7.80;;;5.90;78.10;;;;;;5072696;28;20036;-75
2021/04/14 06:57:01;;;;;;;14.20;8.00;;;5.90;78.10;;;;;;5054941;28;20029;-75
2021/04/14 06:59:31;;;;;;;15.77;7.80;;;6.00;78.10;;;;;;5055036;28;20032;-74
2021/04/14 07:02:11;;;;;;;14.70;9.03;;;6.00;77.80;;;;;;5073066;28;20040;-77
2021/04/14 07:04:45;;;;;;;14.33;8.57;;;6.10;77.80;;;;;;5055330;28;20024;-77
2021/04/14 07:07:18;;;;;;;15.50;8.73;;;6.10;77.60;;;;;;5072998;28;20111;-77
2021/04/14 07:09:46;;;;;;;14.40;8.67;;;6.10;77.50;;;;;;5058107;28;20028;-74
2021/04/14 07:12:17;;;;;;;15.90;8.50;;;6.20;77.50;;;;;;5059253;28;20046;-73
2021/04/14 07:14:45;;;;;;;16.47;7.93;;;6.20;77.20;;;;;;5076877;28;20085;-74
2021/04/14 07:17:42;;;;;;;18.77;9.27;;;6.20;77.10;;;;;;5058679;28;20027;-74
2021/04/14 07:20:23;;;;;;;16.00;9.80;;;6.30;77.20;;;;;;5053128;28;20089;-75
2021/04/14 07:23:18;;;;;;;16.40;8.57;;;6.40;76.90;;;;;;5077160;28;20024;-74
2021/04/14 07:26:23;;;;;;;16.75;8.55;;;6.40;76.60;;;;;;5076870;28;20464;-74
2021/04/14 07:28:55;;;;;;;16.48;9.10;;;6.50;76.50;;;;;;5036416;28;20036;-73
2021/04/14 07:31:55;;;;;;;19.50;8.77;;;6.60;76.30;;;;;;5076979;28;20036;-74
2021/04/14 07:34:30;;;;;;;15.87;7.80;;;6.70;76.20;;;;;;5025579;28;20032;-73
2021/04/14 07:37:10;;;;;;;16.90;8.53;;;6.80;76.00;;;;;;5076579;28;20104;-73
2021/04/14 07:40:16;;;;;;;14.33;8.37;;;7.00;76.00;;;;;;5058598;28;20496;-74
2021/04/14 07:42:44;;;;;;;17.20;8.23;;;7.20;75.80;;;;;;5058785;28;20021;-77
2021/04/14 07:45:16;;;;;;;14.63;7.47;;;7.40;75.50;;;;;;5076436;28;20037;-76
2021/04/14 07:47:47;;;;;;;17.53;8.07;;;7.50;75.20;;;;;;5058637;28;20043;-76
2021/04/14 07:50:13;;;;;;;13.83;7.87;;;7.70;74.70;;;;;;5058445;28;20094;-77
2021/04/14 07:52:39;;;;;;;15.17;7.47;;;7.70;74.20;;;;;;5076239;28;20409;-78
2021/04/14 07:55:23;;;;;;;14.37;8.07;;;7.60;73.50;;;;;;5028960;28;20051;-78
2021/04/14 07:57:49;;;;;;;12.45;7.82;;;7.70;72.60;;;;;;5056096;28;20033;-77
2021/04/14 08:00:32;;;;;;;17.13;8.67;;;7.60;71.60;;;;;;5065712;28;20357;-78
2021/04/14 08:03:10;;;;;;;15.33;8.67;;;7.50;71.20;;;;;;5062393;28;20016;-78
2021/04/14 08:05:36;;;;;;;16.23;8.17;;;7.50;71.40;;;;;;5086945;28;20058;-75
2021/04/14 08:08:12;;;;;;;14.13;7.67;;;7.50;71.40;;;;;;5063141;28;20024;-75
2021/04/14 08:10:37;;;;;;;15.63;8.47;;;7.50;71.70;;;;;;5082119;28;20135;-74
2021/04/14 08:13:08;;;;;;;16.77;7.97;;;7.50;72.30;;;;;;5061474;28;20474;-74
2021/04/14 08:15:42;;;;;;;14.13;7.37;;;7.60;72.10;;;;;;5077950;28;20034;-74
2021/04/14 08:18:11;;;;;;;14.32;7.53;;;7.70;72.10;;;;;;5077877;28;20422;-74
2021/04/14 08:20:39;;;;;;;13.37;7.40;;;7.80;72.00;;;;;;5081136;28;20047;-75
2021/04/14 08:23:11;;;;;;;13.63;7.90;;;8.10;71.90;;;;;;5058333;28;20032;-74
2021/04/14 08:25:40;;;;;;;13.07;7.70;;;8.10;71.60;;;;;;5076080;28;20455;-74
2021/04/14 08:28:06;;;;;;;15.40;7.40;;;8.30;70.90;;;;;;5075877;28;20024;-75
2021/04/14 08:30:32;;;;;;;11.93;7.07;;;8.30;70.50;;;;;;5057964;28;20099;-73
2021/04/14 08:33:01;;;;;;;17.80;9.20;;;8.40;69.70;;;;;;5076182;28;20464;-73
2021/04/14 08:35:34;;;;;;;13.90;8.03;;;8.50;69.10;;;;;;5075164;28;20013;-78
2021/04/14 08:38:11;;;;;;;15.37;8.03;;;8.50;69.00;;;;;;5057830;28;20063;-77
2021/04/14 08:40:52;;;;;;;14.90;8.63;;;8.40;68.70;;;;;;5075814;28;20090;-78
2021/04/14 08:43:27;;;;;;;17.17;8.90;;;8.40;68.00;;;;;;5075318;28;20017;-78
2021/04/14 08:45:56;;;;;;;15.67;8.60;;;8.50;68.10;;;;;;5075126;28;20037;-78
2021/04/14 08:48:31;;;;;;;14.67;7.90;;;8.50;67.80;;;;;;5057363;28;20387;-78
2021/04/14 08:51:03;;;;;;;14.33;8.73;;;8.60;67.80;;;;;;5057350;28;20027;-77
2021/04/14 08:53:36;;;;;;;14.70;8.23;;;8.60;67.40;;;;;;5055609;28;20036;-78
2021/04/14 08:56:07;;;;;;;13.03;8.13;;;8.60;67.40;;;;;;5055379;28;20031;-77
2021/04/14 08:58:33;;;;;;;15.87;8.67;;;8.60;67.40;;;;;;5037314;28;20021;-78
2021/04/14 09:00:59;;;;;;;16.30;10.07;;;8.60;67.10;;;;;;5067764;28;20562;-77
2021/04/14 09:03:28;;;;;;;17.80;11.70;;;8.50;67.10;;;;;;5057161;28;20187;-76
2021/04/14 09:05:55;;;;;;;19.33;10.80;;;8.40;66.50;;;;;;5056876;28;20016;-77
2021/04/14 09:08:24;;;;;;;17.33;10.10;;;8.30;66.70;;;;;;5056918;28;20468;-78
2021/04/14 09:10:57;;;;;;;17.30;10.40;;;8.40;67.20;;;;;;5056751;28;20025;-77
2021/04/14 09:13:49;;;;;;;17.93;10.53;;;8.30;66.50;;;;;;5074795;28;20028;-76
2021/04/14 09:16:47;;;;;;;20.17;11.17;;;8.20;66.90;;;;;;5074992;28;20553;-77
2021/04/14 09:19:19;;;;;;;16.83;10.07;;;8.20;67.30;;;;;;5056729;28;20028;-77
2021/04/14 09:22:24;;;;;;;18.33;10.47;;;8.30;66.90;;;;;;5074532;28;20112;-74
2021/04/14 09:24:51;;;;;;;16.87;10.20;;;8.40;67.00;;;;;;5085567;28;20475;-74
2021/04/14 09:27:32;;;;;;;18.13;11.13;;;8.60;66.90;;;;;;5076106;28;20020;-77
2021/04/14 09:30:23;;;;;;;16.40;10.00;;;8.70;66.80;;;;;;5058667;28;20119;-77
2021/04/14 09:32:55;;;;;;;17.70;10.97;;;8.80;66.50;;;;;;5055368;28;20056;-74
2021/04/14 09:35:23;;;;;;;20.03;11.13;;;8.90;66.20;;;;;;5056391;28;20028;-73
2021/04/14 09:37:51;;;;;;;17.53;9.67;;;9.10;66.30;;;;;;5076641;28;20066;-72
2021/04/14 09:40:32;;;;;;;18.03;10.00;;;9.10;65.60;;;;;;5070363;28;20046;-73
2021/04/14 09:42:58;;;;;;;15.27;9.07;;;9.10;65.00;;;;;;5080844;28;20076;-77
2021/04/14 09:45:26;;;;;;;15.90;9.57;;;9.10;64.60;;;;;;5056207;28;20052;-77
2021/04/14 09:47:53;;;;;;;16.00;9.53;;;9.00;64.60;;;;;;5056681;28;20020;-78
2021/04/14 09:50:40;;;;;;;20.70;10.37;;;9.00;65.00;;;;;;5073823;28;20104;-77
2021/04/14 09:53:14;;;;;;;17.43;9.53;;;8.80;64.40;;;;;;5055693;28;20507;-78
2021/04/14 09:55:50;;;;;;;18.97;10.37;;;8.60;64.70;;;;;;5074015;28;20025;-77
2021/04/14 09:58:24;;;;;;;16.40;9.17;;;8.60;65.10;;;;;;5055825;28;20025;-76
2021/04/14 10:00:54;;;;;;;16.08;9.43;;;8.70;65.10;;;;;;5073289;28;20032;-76
2021/04/14 10:03:33;;;;;;;14.57;9.33;;;8.60;64.60;;;;;;5055633;28;20012;-76
2021/04/14 10:06:22;;;;;;;15.70;9.93;;;8.60;64.80;;;;;;5055524;28;20020;-77
2021/04/14 10:08:48;;;;;;;18.57;10.27;;;8.60;64.40;;;;;;5073374;28;20387;-77
2021/04/14 10:11:35;;;;;;;15.97;8.93;;;8.60;64.00;;;;;;5038988;28;20040;-77
2021/04/14 10:14:17;;;;;;;15.37;9.47;;;8.60;64.20;;;;;;5073031;28;20089;-76
2021/04/14 10:16:47;;;;;;;20.97;9.83;;;8.60;64.60;;;;;;5072837;28;20177;-76
2021/04/14 10:19:26;;;;;;;14.40;9.00;;;8.60;64.60;;;;;;5055407;28;20071;-77
2021/04/14 10:21:52;;;;;;;19.80;11.00;;;8.60;64.90;;;;;;5058346;28;20115;-79
2021/04/14 10:24:19;;;;;;;18.77;9.90;;;8.60;65.00;;;;;;5079561;28;20024;-78
2021/04/14 10:26:54;;;;;;;15.00;9.43;;;8.60;65.00;;;;;;5072545;28;20032;-77
2021/04/14 10:29:27;;;;;;;16.80;10.33;;;8.60;64.90;;;;;;5071116;28;20048;-79
2021/04/14 10:31:57;;;;;;;16.85;10.85;;;8.50;65.10;;;;;;5064244;28;20028;-77
2021/04/14 10:34:31;;;;;;;17.33;9.47;;;8.50;64.90;;;;;;5061238;28;20024;-73
2021/04/14 10:36:58;;;;;;;16.93;10.00;;;8.60;65.20;;;;;;5055931;28;20451;-73
2021/04/14 10:39:33;;;;;;;19.10;10.10;;;8.70;65.70;;;;;;5079728;28;20502;-73
2021/04/14 10:42:13;;;;;;;15.60;9.43;;;8.70;66.00;;;;;;5073974;28;20028;-73
2021/04/14 10:44:38;;;;;;;14.10;8.03;;;8.90;65.70;;;;;;5052141;28;20045;-72
2021/04/14 10:47:17;;;;;;;11.70;6.70;;;9.00;65.50;;;;;;5055222;28;20502;-73
2021/04/14 10:49:43;;;;;;;16.83;9.23;;;9.20;65.10;;;;;;5056393;28;20094;-74
2021/04/14 10:52:17;;;;;;;15.23;10.03;;;9.40;64.70;;;;;;5058206;28;20032;-73
2021/04/14 10:54:47;;;;;;;16.08;9.30;;;9.40;65.00;;;;;;5079528;28;20016;-73
2021/04/14 10:57:44;;;;;;;14.37;8.60;;;9.60;65.00;;;;;;5054836;28;20039;-73
2021/04/14 11:00:14;;;;;;;13.03;8.07;;;9.60;65.00;;;;;;5029506;28;20033;-75
2021/04/14 11:02:47;;;;;;;13.97;7.97;;;9.70;64.30;;;;;;5063025;28;20073;-75
2021/04/14 11:05:15;;;;;;;13.10;7.63;;;9.70;63.50;;;;;;5052846;28;20349;-73
2021/04/14 11:07:43;;;;;;;12.83;7.73;;;9.70;63.20;;;;;;5055440;28;20033;-75
2021/04/14 11:10:13;;;;;;;10.90;5.93;;;9.90;63.40;;;;;;5057236;28;20093;-76
2021/04/14 11:12:48;;;;;;;13.00;7.10;;;9.90;63.10;;;;;;5073048;28;20086;-74
2021/04/14 11:15:17;;;;;;;13.07;7.10;;;10.00;62.10;;;;;;5073249;28;20033;-74
2021/04/14 11:17:43;;;;;;;15.83;7.13;;;10.00;61.70;;;;;;5055055;28;20104;-74
2021/04/14 11:20:16;;;;;;;14.43;7.47;;;10.00;61.40;;;;;;5034783;28;20540;-75
2021/04/14 11:22:51;;;;;;;12.57;6.37;;;10.00;61.20;;;;;;5053091;28;20029;-75
2021/04/14 11:25:28;;;;;;;10.43;6.23;;;10.00;61.10;;;;;;5052804;28;20104;-74
2021/04/14 11:27:59;;;;;;;11.10;6.37;;;10.00;60.60;;;;;;5063900;28;20032;-76
2021/04/14 11:30:25;;;;;;;11.70;7.37;;;10.10;60.80;;;;;;5091274;28;20028;-76
2021/04/14 11:32:55;;;;;;;10.27;6.70;;;10.10;60.30;;;;;;5084072;28;20036;-75
2021/04/14 11:35:39;;;;;;;11.47;7.30;;;10.20;60.00;;;;;;5082557;28;20388;-75
2021/04/14 11:38:05;;;;;;;12.88;6.78;;;10.10;59.30;;;;;;5092917;28;20116;-76
2021/04/14 11:40:38;;;;;;;11.63;5.93;;;10.20;59.00;;;;;;5074656;28;20028;-75
2021/04/14 11:43:26;;;;;;;9.80;5.40;;;10.30;59.20;;;;;;5092780;28;20012;-75
2021/04/14 11:46:01;;;;;;;11.70;5.90;;;10.40;59.20;;;;;;5052933;28;20032;-76
2021/04/14 11:48:43;;;;;;;10.30;5.90;;;10.50;58.80;;;;;;5062704;28;20044;-75
2021/04/14 11:51:24;;;;;;;11.10;5.90;;;10.60;58.20;;;;;;5052120;28;20028;-75
2021/04/14 11:53:59;;;;;;;10.27;5.53;;;10.90;58.50;;;;;;5072446;28;20067;-74
2021/04/14 11:56:38;;;;;;;10.60;6.77;;;11.20;58.70;;;;;;5060320;28;20502;-75
2021/04/14 11:59:17;;;;;;;11.95;7.38;;;11.60;58.40;;;;;;5063599;28;20542;-75
2021/04/14 12:01:48;;;;;;;7.82;4.97;;;12.00;57.10;;;;;;5075766;28;20059;-76
2021/04/14 12:04:14;;;;;;;9.75;5.38;;;12.90;58.50;;;;;;5075843;28;20032;-74
2021/04/14 12:06:40;;;;;;;10.65;5.57;;;14.00;57.90;;;;;;5037727;28;20079;-74
2021/04/14 12:09:06;;;;;;;7.80;5.25;;;15.20;55.10;;;;;;5056211;28;20025;-74
2021/04/14 12:11:31;;;;;;;6.80;4.30;;;15.90;52.30;;;;;;5069332;28;20382;-74
2021/04/14 12:13:57;;;;;;;6.68;3.70;;;16.50;51.30;;;;;;5057916;28;20071;-74
2021/04/14 12:16:26;;;;;;;7.43;3.70;;;17.20;50.70;;;;;;5075968;28;20017;-74
2021/04/14 12:18:52;;;;;;;5.72;3.35;;;18.00;48.30;;;;;;5075677;28;20476;-76
2021/04/14 12:21:18;;;;;;;7.57;4.22;;;18.50;47.20;;;;;;5075514;28;20115;-74
2021/04/14 12:23:44;;;;;;;6.68;3.60;;;19.10;45.40;;;;;;5076061;28;20101;-75
2021/04/14 12:26:11;;;;;;;6.60;3.05;;;19.60;43.80;;;;;;5075286;28;20028;-75
2021/04/14 12:28:36;;;;;;;6.97;4.15;;;20.10;43.20;;;;;;5057770;28;20028;-74
2021/04/14 12:31:02;;;;;;;5.63;3.60;;;20.50;41.00;;;;;;5056560;28;20028;-75
2021/04/14 12:33:28;;;;;;;6.18;3.28;;;20.80;40.50;;;;;;5051805;28;20032;-74
2021/04/14 12:35:54;;;;;;;6.78;3.70;;;21.20;40.10;;;;;;5075185;28;20028;-74
2021/04/14 12:38:19;;;;;;;7.53;3.78;;;21.10;37.90;;;;;;5080274;28;20020;-74
2021/04/14 12:40:45;;;;;;;6.78;3.80;;;20.70;37.60;;;;;;5074846;28;20020;-76
2021/04/14 12:43:10;;;;;;;7.07;3.70;;;20.10;36.50;;;;;;5040012;28;20024;-77
2021/04/14 12:45:38;;;;;;;7.63;4.15;;;19.50;36.70;;;;;;5056657;28;20063;-76
2021/04/14 12:48:08;;;;;;;8.80;4.60;;;18.90;36.60;;;;;;5078714;28;20051;-76
2021/04/14 12:50:34;;;;;;;8.55;4.93;;;18.30;36.60;;;;;;5093785;28;20020;-76
2021/04/14 12:53:00;;;;;;;8.10;4.45;;;17.80;37.10;;;;;;5059200;28;20081;-76
2021/04/14 12:55:45;;;;;;;10.23;4.95;;;17.20;37.50;;;;;;5056733;28;20032;-76
2021/04/14 12:58:16;;;;;;;8.13;4.57;;;16.90;38.00;;;;;;5074765;28;20384;-76
2021/04/14 13:00:42;;;;;;;6.75;4.07;;;17.10;39.10;;;;;;5056300;28;20415;-76
2021/04/14 13:03:29;;;;;;;6.88;3.97;;;17.70;39.30;;;;;;5057018;28;20031;-75